Time,TemperatureF,DewpointF,PressureIn,WindDirection,WindDirectionDegrees,WindSpeedMPH,WindSpeedGustMPH,Humidity,HourlyPrecipIn,Conditions,Clouds,dailyrainin,SoftwareType,DateUTC
2013-04-24 00:01:00,62.0,58.0,30.14,NE,34,0.0,3.0,86,0.00,,,0.00,,2013-04-24 04:01:00,
2013-04-24 00:03:00,61.0,57.0,30.15,NE,34,0.0,3.0,86,0.00,,,0.00,,2013-04-24 04:03:00,
2013-04-24 00:12:00,61.0,57.0,30.15,NE,34,0.0,3.0,86,0.00,,,0.00,,2013-04-24 04:12:00,
2013-04-24 00:23:00,61.0,57.0,30.15,NE,34,0.0,2.0,87,0.00,,,0.00,,2013-04-24 04:23:00,
2013-04-24 00:33:00,61.0,57.0,30.15,NE,34,0.0,1.0,87,0.00,,,0.00,,2013-04-24 04:33:00,
2013-04-24 00:43:00,61.0,57.0,30.15,NE,34,0.0,1.0,87,0.00,,,0.00,,2013-04-24 04:43:00,
2013-04-24 00:53:00,60.0,56.0,30.14,NE,34,1.0,3.0,88,0.00,,,0.00,,2013-04-24 04:53:00,
2013-04-24 01:02:00,60.0,56.0,30.14,NE,34,0.0,1.0,88,0.00,,,0.00,,2013-04-24 05:02:00,
2013-04-24 01:13:00,60.0,56.0,30.14,NE,34,0.0,1.0,88,0.00,,,0.00,,2013-04-24 05:13:00,
2013-04-24 01:22:00,60.0,57.0,30.14,NE,34,0.0,1.0,89,0.00,,,0.00,,2013-04-24 05:22:00,
2013-04-24 01:32:00,59.0,56.0,30.14,NE,34,0.0,0.0,89,0.00,,,0.00,,2013-04-24 05:32:00,
2013-04-24 01:42:00,59.0,56.0,30.14,NE,34,0.0,0.0,89,0.00,,,0.00,,2013-04-24 05:42:00,
2013-04-24 01:52:00,59.0,56.0,30.13,NE,34,0.0,0.0,89,0.00,,,0.00,,2013-04-24 05:52:00,
2013-04-24 02:02:00,58.0,55.0,30.13,NE,34,0.0,0.0,90,0.00,,,0.00,,2013-04-24 06:02:00,
2013-04-24 02:12:00,58.0,55.0,30.13,NE,34,0.0,0.0,90,0.00,,,0.00,,2013-04-24 06:12:00,
2013-04-24 02:22:00,58.0,55.0,30.13,NE,34,0.0,0.0,90,0.00,,,0.00,,2013-04-24 06:22:00,
2013-04-24 02:33:00,58.0,55.0,30.13,NE,34,0.0,0.0,91,0.00,,,0.00,,2013-04-24 06:33:00,
2013-04-24 02:42:00,58.0,55.0,30.13,NE,34,0.0,0.0,91,0.00,,,0.00,,2013-04-24 06:42:00,
2013-04-24 02:52:00,57.0,54.0,30.11,NE,34,0.0,0.0,91,0.00,,,0.00,,2013-04-24 06:52:00,
2013-04-24 03:02:00,57.0,54.0,30.11,NE,34,0.0,0.0,91,0.00,,,0.00,,2013-04-24 07:02:00,
2013-04-24 03:11:00,57.0,54.0,30.11,NE,34,0.0,0.0,91,0.00,,,0.00,,2013-04-24 07:11:00,
2013-04-24 03:22:00,57.0,55.0,30.11,NE,34,0.0,0.0,92,0.00,,,0.00,,2013-04-24 07:22:00,
2013-04-24 03:32:00,57.0,55.0,30.11,NE,34,0.0,0.0,92,0.00,,,0.00,,2013-04-24 07:32:00,
2013-04-24 03:42:00,57.0,55.0,30.11,NE,34,0.0,0.0,92,0.00,,,0.00,,2013-04-24 07:42:00,
2013-04-24 03:52:00,57.0,55.0,30.11,NE,34,0.0,0.0,92,0.00,,,0.00,,2013-04-24 07:52:00,
2013-04-24 04:02:00,56.0,54.0,30.11,NE,34,0.0,0.0,92,0.00,,,0.00,,2013-04-24 08:02:00,
2013-04-24 04:12:00,56.0,54.0,30.11,NE,34,0.0,0.0,92,0.00,,,0.00,,2013-04-24 08:12:00,
2013-04-24 04:21:00,56.0,54.0,30.11,NE,34,0.0,0.0,92,0.00,,,0.00,,2013-04-24 08:21:00,
2013-04-24 04:33:00,56.0,54.0,30.11,NE,34,0.0,1.0,92,0.00,,,0.00,,2013-04-24 08:33:00,
2013-04-24 04:42:00,56.0,54.0,30.11,NE,34,0.0,1.0,92,0.00,,,0.00,,2013-04-24 08:42:00,
2013-04-24 04:52:00,56.0,54.0,30.11,NE,34,0.0,0.0,92,0.00,,,0.00,,2013-04-24 08:52:00,
2013-04-24 05:02:00,56.0,54.0,30.11,NE,34,0.0,0.0,92,0.00,,,0.00,,2013-04-24 09:02:00,
2013-04-24 05:11:00,56.0,54.0,30.11,NE,34,0.0,0.0,92,0.00,,,0.00,,2013-04-24 09:11:00,
2013-04-24 05:21:00,56.0,54.0,30.11,NE,34,0.0,0.0,92,0.00,,,0.00,,2013-04-24 09:21:00,
2013-04-24 05:33:00,55.0,53.0,30.11,NE,34,0.0,0.0,92,0.00,,,0.00,,2013-04-24 09:33:00,
2013-04-24 05:42:00,55.0,53.0,30.11,NE,34,0.0,0.0,92,0.00,,,0.00,,2013-04-24 09:42:00,
2013-04-24 05:53:00,55.0,53.0,30.12,NE,34,0.0,0.0,92,0.00,,,0.00,,2013-04-24 09:53:00,
2013-04-24 06:02:00,55.0,53.0,30.13,NE,34,0.0,0.0,92,0.00,,,0.00,,2013-04-24 10:02:00,
2013-04-24 06:12:00,55.0,53.0,30.13,NE,34,0.0,0.0,92,0.00,,,0.00,,2013-04-24 10:12:00,
2013-04-24 06:22:00,55.0,53.0,30.13,NE,34,0.0,0.0,92,0.00,,,0.00,,2013-04-24 10:22:00,
2013-04-24 06:32:00,54.0,52.0,30.13,NE,34,0.0,0.0,92,0.00,,,0.00,,2013-04-24 10:32:00,
2013-04-24 06:42:00,54.0,52.0,30.13,NE,34,0.0,0.0,92,0.00,,,0.00,,2013-04-24 10:42:00,
2013-04-24 06:52:00,54.0,52.0,30.14,NE,34,0.0,0.0,92,0.00,,,0.00,,2013-04-24 10:52:00,
2013-04-24 07:02:00,54.0,52.0,30.14,NE,34,0.0,0.0,93,0.00,,,0.00,,2013-04-24 11:02:00,
2013-04-24 07:11:00,54.0,52.0,30.14,NE,34,0.0,0.0,93,0.00,,,0.00,,2013-04-24 11:11:00,
2013-04-24 07:21:00,54.0,52.0,30.14,NE,34,0.0,0.0,93,0.00,,,0.00,,2013-04-24 11:21:00,
2013-04-24 07:32:00,54.0,52.0,30.14,NE,34,0.0,0.0,93,0.00,,,0.00,,2013-04-24 11:32:00,
2013-04-24 07:42:00,54.0,52.0,30.14,NE,34,0.0,0.0,93,0.00,,,0.00,,2013-04-24 11:42:00,
2013-04-24 07:52:00,54.0,52.0,30.15,NE,34,0.0,0.0,93,0.00,,,0.00,,2013-04-24 11:52:00,
2013-04-24 08:02:00,55.0,53.0,30.15,NE,34,0.0,0.0,94,0.00,,,0.00,,2013-04-24 12:02:00,
2013-04-24 08:11:00,55.0,53.0,30.15,NE,34,0.0,0.0,94,0.00,,,0.00,,2013-04-24 12:11:00,
2013-04-24 08:22:00,57.0,56.0,30.16,NE,34,0.0,3.0,95,0.00,,,0.00,,2013-04-24 12:22:00,
2013-04-24 08:32:00,58.0,57.0,30.16,NE,34,1.0,3.0,95,0.00,,,0.00,,2013-04-24 12:32:00,
2013-04-24 08:42:00,58.0,57.0,30.16,NE,34,1.0,3.0,95,0.00,,,0.00,,2013-04-24 12:42:00,
2013-04-24 08:52:00,60.0,59.0,30.16,NE,34,0.0,2.0,95,0.00,,,0.00,,2013-04-24 12:52:00,
2013-04-24 09:01:00,61.0,59.0,30.16,NE,34,0.0,0.0,93,0.00,,,0.00,,2013-04-24 13:01:00,
2013-04-24 09:12:00,61.0,59.0,30.16,NE,34,0.0,0.0,93,0.00,,,0.00,,2013-04-24 13:12:00,
2013-04-24 09:22:00,63.0,60.0,30.17,NE,34,0.0,0.0,90,0.00,,,0.00,,2013-04-24 13:22:00,
2013-04-24 09:32:00,66.0,62.0,30.17,NE,34,0.0,1.0,86,0.00,,,0.00,,2013-04-24 13:32:00,
2013-04-24 09:41:00,66.0,62.0,30.17,NE,34,0.0,1.0,86,0.00,,,0.00,,2013-04-24 13:41:00,
2013-04-24 09:52:00,68.0,62.0,30.17,NE,34,0.0,3.0,81,0.00,,,0.00,,2013-04-24 13:52:00,
2013-04-24 10:01:00,70.0,62.0,30.17,NE,35,0.0,2.0,77,0.00,,,0.00,,2013-04-24 14:01:00,
2013-04-24 10:11:00,70.0,62.0,30.17,NE,35,0.0,2.0,77,0.00,,,0.00,,2013-04-24 14:11:00,
2013-04-24 10:21:00,72.0,63.0,30.17,ENE,76,1.0,5.0,73,0.00,,,0.00,,2013-04-24 14:21:00,
2013-04-24 10:32:00,73.0,62.0,30.17,ESE,108,0.0,6.0,69,0.00,,,0.00,,2013-04-24 14:32:00,
2013-04-24 10:41:00,73.0,62.0,30.17,ESE,108,0.0,6.0,69,0.00,,,0.00,,2013-04-24 14:41:00,
2013-04-24 10:52:00,75.0,62.0,30.17,ESE,104,2.0,7.0,65,0.00,,,0.00,,2013-04-24 14:52:00,
2013-04-24 11:01:00,76.0,62.0,30.17,SE,145,3.0,9.0,61,0.00,,,0.00,,2013-04-24 15:01:00,
2013-04-24 11:11:00,76.0,62.0,30.17,SE,145,3.0,9.0,61,0.00,,,0.00,,2013-04-24 15:11:00,
2013-04-24 11:22:00,77.0,62.0,30.17,ESE,121,0.0,6.0,59,0.00,,,0.00,,2013-04-24 15:22:00,
2013-04-24 11:33:00,78.0,62.0,30.17,East,98,1.0,5.0,57,0.00,,,0.00,,2013-04-24 15:33:00,
2013-04-24 11:43:00,78.0,62.0,30.17,East,98,1.0,5.0,57,0.00,,,0.00,,2013-04-24 15:43:00,
2013-04-24 11:53:00,78.0,62.0,30.17,ESE,121,2.0,7.0,57,0.00,,,0.00,,2013-04-24 15:53:00,
2013-04-24 12:03:00,79.0,61.0,30.16,SE,138,1.0,6.0,55,0.00,,,0.00,,2013-04-24 16:03:00,
2013-04-24 12:12:00,79.0,61.0,30.16,SE,138,1.0,6.0,55,0.00,,,0.00,,2013-04-24 16:12:00,
2013-04-24 12:23:00,81.0,62.0,30.16,ESE,109,1.0,6.0,52,0.00,,,0.00,,2013-04-24 16:23:00,
2013-04-24 12:32:00,82.0,61.0,30.15,East,101,3.0,7.0,50,0.00,,,0.00,,2013-04-24 16:32:00,
2013-04-24 12:42:00,82.0,62.0,30.15,East,86,2.0,6.0,51,0.00,,,0.00,,2013-04-24 16:42:00,
2013-04-24 12:53:00,82.0,62.0,30.15,East,86,2.0,6.0,51,0.00,,,0.00,,2013-04-24 16:53:00,
2013-04-24 13:02:00,83.0,63.0,30.14,ESE,116,0.0,6.0,51,0.00,,,0.00,,2013-04-24 17:02:00,
2013-04-24 13:12:00,83.0,63.0,30.14,ESE,116,0.0,6.0,51,0.00,,,0.00,,2013-04-24 17:12:00,
2013-04-24 13:22:00,83.0,62.0,30.14,East,89,0.0,7.0,49,0.00,,,0.00,,2013-04-24 17:22:00,
2013-04-24 13:32:00,85.0,62.0,30.14,East,91,1.0,4.0,47,0.00,,,0.00,,2013-04-24 17:32:00,
2013-04-24 13:42:00,85.0,62.0,30.14,East,91,1.0,4.0,47,0.00,,,0.00,,2013-04-24 17:42:00,
2013-04-24 13:52:00,85.0,62.0,30.14,ESE,103,2.0,4.0,46,0.00,,,0.00,,2013-04-24 17:52:00,
2013-04-24 14:02:00,84.0,62.0,30.14,ESE,102,0.0,4.0,47,0.00,,,0.00,,2013-04-24 18:02:00,
2013-04-24 14:12:00,84.0,62.0,30.14,ESE,102,0.0,4.0,47,0.00,,,0.00,,2013-04-24 18:12:00,
2013-04-24 14:22:00,87.0,63.0,30.13,NE,45,0.0,2.0,45,0.00,,,0.00,,2013-04-24 18:22:00,
2013-04-24 14:33:00,87.0,62.0,30.13,East,88,1.0,3.0,44,0.00,,,0.00,,2013-04-24 18:33:00,
2013-04-24 14:42:00,87.0,62.0,30.13,East,88,1.0,3.0,44,0.00,,,0.00,,2013-04-24 18:42:00,
2013-04-24 14:52:00,87.0,62.0,30.13,ENE,59,0.0,4.0,43,0.00,,,0.00,,2013-04-24 18:52:00,
2013-04-24 15:02:00,86.0,60.0,30.11,ENE,63,0.0,3.0,42,0.00,,,0.00,,2013-04-24 19:02:00,
2013-04-24 15:11:00,86.0,60.0,30.11,ENE,63,0.0,3.0,42,0.00,,,0.00,,2013-04-24 19:11:00,
2013-04-24 15:22:00,87.0,59.0,30.11,South,177,0.0,6.0,39,0.00,,,0.00,,2013-04-24 19:22:00,
2013-04-24 15:32:00,88.0,61.0,30.11,SSE,157,2.0,7.0,41,0.00,,,0.00,,2013-04-24 19:32:00,
2013-04-24 15:42:00,88.0,61.0,30.11,SSE,157,2.0,7.0,41,0.00,,,0.00,,2013-04-24 19:42:00,
2013-04-24 15:52:00,88.0,58.0,30.11,SSE,157,0.0,2.0,37,0.00,,,0.00,,2013-04-24 19:52:00,
2013-04-24 16:02:00,88.0,61.0,30.10,SSE,157,1.0,3.0,40,0.00,,,0.00,,2013-04-24 20:02:00,
2013-04-24 16:11:00,88.0,61.0,30.10,SSE,157,1.0,3.0,40,0.00,,,0.00,,2013-04-24 20:11:00,
2013-04-24 16:22:00,88.0,59.0,30.10,SSE,158,0.0,3.0,38,0.00,,,0.00,,2013-04-24 20:22:00,
2013-04-24 16:32:00,88.0,58.0,30.09,ENE,73,0.0,4.0,37,0.00,,,0.00,,2013-04-24 20:32:00,
2013-04-24 16:42:00,88.0,58.0,30.09,ENE,73,0.0,4.0,37,0.00,,,0.00,,2013-04-24 20:42:00,
2013-04-24 16:52:00,88.0,59.0,30.09,ENE,66,0.0,2.0,38,0.00,,,0.00,,2013-04-24 20:52:00,
2013-04-24 17:02:00,88.0,59.0,30.08,ENE,67,0.0,2.0,38,0.00,,,0.00,,2013-04-24 21:02:00,
2013-04-24 17:11:00,88.0,59.0,30.08,ENE,67,0.0,2.0,38,0.00,,,0.00,,2013-04-24 21:11:00,
2013-04-24 17:22:00,87.0,60.0,30.08,ESE,106,0.0,2.0,40,0.00,,,0.00,,2013-04-24 21:22:00,
2013-04-24 17:33:00,86.0,58.0,30.08,ESE,106,0.0,0.0,39,0.00,,,0.00,,2013-04-24 21:33:00,
2013-04-24 17:42:00,86.0,58.0,30.08,ESE,106,0.0,0.0,39,0.00,,,0.00,,2013-04-24 21:42:00,
2013-04-24 17:53:00,85.0,59.0,30.09,ESE,106,0.0,1.0,42,0.00,,,0.00,,2013-04-24 21:53:00,
2013-04-24 18:03:00,85.0,59.0,30.09,ESE,106,0.0,0.0,41,0.00,,,0.00,,2013-04-24 22:03:00,
2013-04-24 18:12:00,85.0,59.0,30.09,ESE,106,0.0,0.0,41,0.00,,,0.00,,2013-04-24 22:12:00,
2013-04-24 18:22:00,85.0,59.0,30.09,ESE,105,0.0,1.0,41,0.00,,,0.00,,2013-04-24 22:22:00,
2013-04-24 18:33:00,85.0,59.0,30.09,NE,42,1.0,4.0,42,0.00,,,0.00,,2013-04-24 22:33:00,
2013-04-24 18:42:00,85.0,59.0,30.09,NE,42,1.0,4.0,42,0.00,,,0.00,,2013-04-24 22:42:00,
2013-04-24 18:52:00,83.0,65.0,30.09,NE,50,2.0,7.0,54,0.00,,,0.00,,2013-04-24 22:52:00,
2013-04-24 19:02:00,81.0,64.0,30.09,ESE,114,1.0,6.0,56,0.00,,,0.00,,2013-04-24 23:02:00,
2013-04-24 19:12:00,81.0,64.0,30.09,ESE,114,1.0,6.0,56,0.00,,,0.00,,2013-04-24 23:12:00,
2013-04-24 19:21:00,81.0,64.0,30.09,East,94,3.0,7.0,56,0.00,,,0.00,,2013-04-24 23:21:00,
2013-04-24 19:32:00,80.0,63.0,30.10,East,92,1.0,5.0,57,0.00,,,0.00,,2013-04-24 23:32:00,
2013-04-24 19:42:00,80.0,63.0,30.10,East,92,1.0,5.0,57,0.00,,,0.00,,2013-04-24 23:42:00,
2013-04-24 19:52:00,79.0,63.0,30.10,ESE,105,0.0,4.0,58,0.00,,,0.00,,2013-04-24 23:52:00,
2013-04-24 20:02:00,78.0,62.0,30.11,ESE,105,2.0,6.0,58,0.00,,,0.00,,2013-04-25 00:02:00,
2013-04-24 20:12:00,78.0,62.0,30.11,ESE,105,2.0,6.0,58,0.00,,,0.00,,2013-04-25 00:12:00,
2013-04-24 20:22:00,77.0,62.0,30.11,ESE,104,1.0,7.0,59,0.00,,,0.00,,2013-04-25 00:22:00,
2013-04-24 20:32:00,77.0,63.0,30.12,ESE,116,0.0,7.0,61,0.00,,,0.00,,2013-04-25 00:32:00,
2013-04-24 20:42:00,77.0,63.0,30.12,ESE,116,0.0,7.0,61,0.00,,,0.00,,2013-04-25 00:42:00,
2013-04-24 20:52:00,76.0,62.0,30.13,ESE,106,2.0,9.0,61,0.00,,,0.00,,2013-04-25 00:52:00,
2013-04-24 21:01:00,75.0,61.0,30.13,South,174,2.0,9.0,62,0.00,,,0.00,,2013-04-25 01:01:00,
2013-04-24 21:11:00,75.0,61.0,30.13,South,174,2.0,9.0,62,0.00,,,0.00,,2013-04-25 01:11:00,
2013-04-24 21:23:00,75.0,62.0,30.14,ESE,109,0.0,4.0,63,0.00,,,0.00,,2013-04-25 01:23:00,
2013-04-24 21:32:00,74.0,61.0,30.14,East,101,1.0,5.0,63,0.00,,,0.00,,2013-04-25 01:32:00,
2013-04-24 21:42:00,74.0,61.0,30.14,East,101,1.0,5.0,63,0.00,,,0.00,,2013-04-25 01:42:00,
2013-04-24 21:52:00,73.0,61.0,30.15,East,101,3.0,11.0,65,0.00,,,0.00,,2013-04-25 01:52:00,
2013-04-24 22:02:00,73.0,61.0,30.16,East,96,2.0,5.0,65,0.00,,,0.00,,2013-04-25 02:02:00,
2013-04-24 22:11:00,73.0,61.0,30.16,East,96,2.0,5.0,65,0.00,,,0.00,,2013-04-25 02:11:00,
2013-04-24 22:22:00,72.0,60.0,30.16,ESE,102,0.0,5.0,67,0.00,,,0.00,,2013-04-25 02:22:00,
2013-04-24 22:32:00,72.0,60.0,30.16,ESE,102,0.0,4.0,67,0.00,,,0.00,,2013-04-25 02:32:00,
2013-04-24 22:42:00,72.0,60.0,30.16,ESE,102,0.0,4.0,67,0.00,,,0.00,,2013-04-25 02:42:00,
2013-04-24 22:52:00,72.0,60.0,30.16,ESE,102,0.0,4.0,67,0.00,,,0.00,,2013-04-25 02:52:00,
2013-04-24 23:02:00,71.0,60.0,30.16,ESE,107,0.0,3.0,69,0.00,,,0.00,,2013-04-25 03:02:00,
2013-04-24 23:11:00,71.0,60.0,30.16,ESE,107,0.0,3.0,69,0.00,,,0.00,,2013-04-25 03:11:00,
2013-04-24 23:22:00,70.0,60.0,30.16,ESE,107,0.0,2.0,71,0.00,,,0.00,,2013-04-25 03:22:00,
2013-04-24 23:33:00,70.0,61.0,30.16,ESE,107,0.0,0.0,73,0.00,,,0.00,,2013-04-25 03:33:00,
2013-04-24 23:42:00,70.0,61.0,30.16,ESE,107,0.0,0.0,73,0.00,,,0.00,,2013-04-25 03:42:00,
2013-04-24 23:52:00,69.0,61.0,30.16,ESE,107,0.0,0.0,75,0.00,,,0.00,,2013-04-25 03:52:00,